sensor_id;sensor_type;location;lat;lon;timestamp;pressure;altitude;pressure_sealevel;temperature;humidity
67842;BME280;54642;59.126;37.876;2022-10-16T00:00:38;100803.25;;;10.72;65.79
67842;BME280;54642;59.126;37.876;2022-10-16T00:03:05;100799.78;;;10.70;65.80
67842;BME280;54642;59.126;37.876;2022-10-16T00:05:32;100804.97;;;10.68;65.92
67842;BME280;54642;59.126;37.876;2022-10-16T00:07:58;100798.91;;;10.69;65.93
67842;BME280;54642;59.126;37.876;2022-10-16T00:10:24;100792.78;;;10.56;66.15
67842;BME280;54642;59.126;37.876;2022-10-16T00:12:50;100792.78;;;10.56;66.04
67842;BME280;54642;59.126;37.876;2022-10-16T00:15:16;100815.34;;;10.70;65.94
67842;BME280;54642;59.126;37.876;2022-10-16T00:17:41;100807.56;;;10.68;65.91
67842;BME280;54642;59.126;37.876;2022-10-16T00:20:08;100799.75;;;10.63;65.92
67842;BME280;54642;59.126;37.876;2022-10-16T00:22:52;100818.81;;;10.72;65.78
67842;BME280;54642;59.126;37.876;2022-10-16T00:25:18;100793.69;;;10.61;65.84
67842;BME280;54642;59.126;37.876;2022-10-16T00:27:44;100793.69;;;10.63;65.93
67842;BME280;54642;59.126;37.876;2022-10-16T00:30:10;100802.31;;;10.60;65.97
67842;BME280;54642;59.126;37.876;2022-10-16T00:32:36;100800.59;;;10.59;66.01
67842;BME280;54642;59.126;37.876;2022-10-16T00:35:02;100804.06;;;10.61;66.04
67842;BME280;54642;59.126;37.876;2022-10-16T00:37:29;100809.28;;;10.66;66.07
67842;BME280;54642;59.126;37.876;2022-10-16T00:39:55;100814.44;;;10.64;66.16
67842;BME280;54642;59.126;37.876;2022-10-16T00:42:22;100764.97;;;10.35;66.17
67842;BME280;54642;59.126;37.876;2022-10-16T00:44:53;100798.81;;;10.54;66.28
67842;BME280;54642;59.126;37.876;2022-10-16T00:47:31;100819.66;;;10.66;65.99
67842;BME280;54642;59.126;37.876;2022-10-16T00:50:24;100825.66;;;10.63;66.22
67842;BME280;54642;59.126;37.876;2022-10-16T00:52:52;100810.03;;;10.53;65.96
67842;BME280;54642;59.126;37.876;2022-10-16T00:55:19;100801.34;;;10.47;66.10
67842;BME280;54642;59.126;37.876;2022-10-16T00:57:45;100820.44;;;10.56;66.26
67842;BME280;54642;59.126;37.876;2022-10-16T01:00:16;100828.22;;;10.57;66.18
67842;BME280;54642;59.126;37.876;2022-10-16T01:02:42;100810.88;;;10.50;66.15
67842;BME280;54642;59.126;37.876;2022-10-16T01:05:08;100823.88;;;10.55;66.18
67842;BME280;54642;59.126;37.876;2022-10-16T01:07:41;100826.47;;;10.55;66.12
67842;BME280;54642;59.126;37.876;2022-10-16T01:13:12;100786.50;;;10.29;66.25
67842;BME280;54642;59.126;37.876;2022-10-16T01:15:52;100822.06;;;10.46;66.29
67842;BME280;54642;59.126;37.876;2022-10-16T01:21:36;100821.22;;;10.45;66.38
67842;BME280;54642;59.126;37.876;2022-10-16T01:24:26;100822.94;;;10.48;66.37
67842;BME280;54642;59.126;37.876;2022-10-16T01:32:02;100811.69;;;10.43;66.35
67842;BME280;54642;59.126;37.876;2022-10-16T01:34:56;100815.16;;;10.48;66.32
67842;BME280;54642;59.126;37.876;2022-10-16T01:37:39;100826.41;;;10.47;66.43
67842;BME280;54642;59.126;37.876;2022-10-16T01:40:11;100815.13;;;10.42;66.31
67842;BME280;54642;59.126;37.876;2022-10-16T01:43:24;100820.31;;;10.42;66.50
67842;BME280;54642;59.126;37.876;2022-10-16T01:45:44;100785.59;;;10.21;66.27
67842;BME280;54642;59.126;37.876;2022-10-16T01:48:13;100822.88;;;10.40;66.42
67842;BME280;54642;59.126;37.876;2022-10-16T01:50:42;100801.13;;;10.21;66.38
67842;BME280;54642;59.126;37.876;2022-10-16T01:53:12;100823.66;;;10.28;66.64
67842;BME280;54642;59.126;37.876;2022-10-16T01:55:45;100811.41;;;10.15;66.64
67842;BME280;54642;59.126;37.876;2022-10-16T01:58:13;100823.56;;;10.22;66.57
67842;BME280;54642;59.126;37.876;2022-10-16T02:00:42;100810.50;;;10.10;66.55
67842;BME280;54642;59.126;37.876;2022-10-16T02:03:11;100812.25;;;10.11;66.78
67842;BME280;54642;59.126;37.876;2022-10-16T02:05:49;100831.38;;;10.24;66.52
67842;BME280;54642;59.126;37.876;2022-10-16T02:08:16;100821.78;;;10.15;66.60
67842;BME280;54642;59.126;37.876;2022-10-16T02:10:42;100834.72;;;10.14;66.64
67842;BME280;54642;59.126;37.876;2022-10-16T02:13:31;100834.66;;;10.06;66.50
67842;BME280;54642;59.126;37.876;2022-10-16T02:15:59;100821.66;;;10.03;66.63
67842;BME280;54642;59.126;37.876;2022-10-16T02:18:26;100833.72;;;10.01;66.82
67842;BME280;54642;59.126;37.876;2022-10-16T02:20:59;100823.25;;;9.88;66.96
67842;BME280;54642;59.126;37.876;2022-10-16T02:23:50;100838.84;;;9.96;66.83
67842;BME280;54642;59.126;37.876;2022-10-16T02:26:35;100819.75;;;9.83;67.03
67842;BME280;54642;59.126;37.876;2022-10-16T02:29:07;100831.91;;;9.90;66.90
67842;BME280;54642;59.126;37.876;2022-10-16T02:31:38;100838.78;;;9.88;67.02
67842;BME280;54642;59.126;37.876;2022-10-16T02:34:07;100821.41;;;9.78;66.86
67842;BME280;54642;59.126;37.876;2022-10-16T02:36:37;100842.25;;;9.87;66.94
67842;BME280;54642;59.126;37.876;2022-10-16T02:39:05;100820.53;;;9.76;66.88
67842;BME280;54642;59.126;37.876;2022-10-16T02:41:32;100825.69;;;9.74;67.18
67842;BME280;54642;59.126;37.876;2022-10-16T02:43:58;100852.56;;;9.84;66.96
67842;BME280;54642;59.126;37.876;2022-10-16T02:46:24;100843.03;;;9.82;66.86
67842;BME280;54642;59.126;37.876;2022-10-16T02:48:50;100849.09;;;9.82;66.92
67842;BME280;54642;59.126;37.876;2022-10-16T02:51:15;100849.06;;;9.81;67.03
67842;BME280;54642;59.126;37.876;2022-10-16T02:53:41;100858.47;;;9.74;67.04
67842;BME280;54642;59.126;37.876;2022-10-16T02:56:07;100867.97;;;9.73;67.02
67842;BME280;54642;59.126;37.876;2022-10-16T02:58:33;100852.34;;;9.64;67.35
67842;BME280;54642;59.126;37.876;2022-10-16T03:00:59;100847.06;;;9.57;67.14
67842;BME280;54642;59.126;37.876;2022-10-16T03:03:25;100834.00;;;9.47;67.34
67842;BME280;54642;59.126;37.876;2022-10-16T03:05:51;100866.06;;;9.60;67.35
67842;BME280;54642;59.126;37.876;2022-10-16T03:08:17;100856.50;;;9.53;67.43
67842;BME280;54642;59.126;37.876;2022-10-16T03:10:49;100867.75;;;9.57;67.32
67842;BME280;54642;59.126;37.876;2022-10-16T03:13:15;100840.00;;;9.43;67.20
67842;BME280;54642;59.126;37.876;2022-10-16T03:15:41;100867.69;;;9.50;67.36
67842;BME280;54642;59.126;37.876;2022-10-16T03:18:07;100862.47;;;9.47;67.37
67842;BME280;54642;59.126;37.876;2022-10-16T03:20:33;100862.44;;;9.44;67.27
67842;BME280;54642;59.126;37.876;2022-10-16T03:22:59;100871.09;;;9.46;67.42
67842;BME280;54642;59.126;37.876;2022-10-16T03:25:25;100852.84;;;9.34;67.45
67842;BME280;54642;59.126;37.876;2022-10-16T03:27:50;100856.38;;;9.42;67.37
67842;BME280;54642;59.126;37.876;2022-10-16T03:30:16;100848.50;;;9.33;67.45
67842;BME280;54642;59.126;37.876;2022-10-16T03:32:44;100854.50;;;9.29;67.29
67842;BME280;54642;59.126;37.876;2022-10-16T03:35:10;100873.50;;;9.32;67.41
67842;BME280;54642;59.126;37.876;2022-10-16T03:37:36;100873.47;;;9.31;67.31
67842;BME280;54642;59.126;37.876;2022-10-16T03:40:03;100855.22;;;9.19;67.68
67842;BME280;54642;59.126;37.876;2022-10-16T03:42:29;100879.47;;;9.27;67.64
67842;BME280;54642;59.126;37.876;2022-10-16T03:44:55;100818.69;;;8.95;67.61
67842;BME280;54642;59.126;37.876;2022-10-16T03:47:20;100862.06;;;9.15;67.56
67842;BME280;54642;59.126;37.876;2022-10-16T03:49:49;100878.56;;;9.23;67.58
67842;BME280;54642;59.126;37.876;2022-10-16T03:52:15;100882.06;;;9.27;67.32
67842;BME280;54642;59.126;37.876;2022-10-16T03:54:41;100878.53;;;9.22;67.72
67842;BME280;54642;59.126;37.876;2022-10-16T03:57:07;100882.84;;;9.23;67.60
67842;BME280;54642;59.126;37.876;2022-10-16T03:59:33;100871.53;;;9.14;67.63
67842;BME280;54642;59.126;37.876;2022-10-16T04:01:59;100875.06;;;9.20;67.67
67842;BME280;54642;59.126;37.876;2022-10-16T04:04:25;100867.09;;;9.06;67.59
67842;BME280;54642;59.126;37.876;2022-10-16T04:06:51;100868.00;;;9.09;67.59
67842;BME280;54642;59.126;37.876;2022-10-16T04:09:17;100872.19;;;9.00;67.60
67842;BME280;54642;59.126;37.876;2022-10-16T04:11:42;100886.06;;;9.06;67.64
67842;BME280;54642;59.126;37.876;2022-10-16T04:14:08;100886.94;;;9.05;67.78
67842;BME280;54642;59.126;37.876;2022-10-16T04:16:34;100868.69;;;8.94;67.51
67842;BME280;54642;59.126;37.876;2022-10-16T04:19:00;100894.72;;;9.08;67.60
67842;BME280;54642;59.126;37.876;2022-10-16T04:21:26;100885.16;;;9.03;67.68
67842;BME280;54642;59.126;37.876;2022-10-16T04:23:52;100867.78;;;8.94;67.52
67842;BME280;54642;59.126;37.876;2022-10-16T04:26:18;100873.72;;;8.87;67.61
67842;BME280;54642;59.126;37.876;2022-10-16T04:28:43;100879.81;;;8.92;67.57
67842;BME280;54642;59.126;37.876;2022-10-16T04:31:09;100868.50;;;8.84;67.65
67842;BME280;54642;59.126;37.876;2022-10-16T04:33:35;100866.84;;;8.87;67.63
67842;BME280;54642;59.126;37.876;2022-10-16T04:36:02;100880.81;;;9.00;67.51
67842;BME280;54642;59.126;37.876;2022-10-16T04:38:28;100867.69;;;8.86;67.39
67842;BME280;54642;59.126;37.876;2022-10-16T04:40:55;100845.09;;;8.73;67.49
67842;BME280;54642;59.126;37.876;2022-10-16T04:43:21;100897.13;;;8.96;67.54
67842;BME280;54642;59.126;37.876;2022-10-16T04:45:47;100874.59;;;8.89;67.38
67842;BME280;54642;59.126;37.876;2022-10-16T04:48:12;100893.69;;;8.97;67.49
67842;BME280;54642;59.126;37.876;2022-10-16T04:50:38;100867.69;;;8.86;67.49
67842;BME280;54642;59.126;37.876;2022-10-16T04:53:05;100886.81;;;8.99;67.53
67842;BME280;54642;59.126;37.876;2022-10-16T04:55:32;100878.19;;;8.97;67.19
67842;BME280;54642;59.126;37.876;2022-10-16T04:57:58;100890.31;;;9.03;67.20
67842;BME280;54642;59.126;37.876;2022-10-16T05:00:24;100873.88;;;8.99;66.91
67842;BME280;54642;59.126;37.876;2022-10-16T05:02:50;100888.47;;;9.57;66.11
67842;BME280;54642;59.126;37.876;2022-10-16T05:05:16;100891.00;;;10.28;64.04
67842;BME280;54642;59.126;37.876;2022-10-16T05:07:46;100880.41;;;11.08;62.20
67842;BME280;54642;59.126;37.876;2022-10-16T05:10:11;100883.41;;;11.97;60.05
67842;BME280;54642;59.126;37.876;2022-10-16T05:12:37;100880.88;;;12.93;57.99
67842;BME280;54642;59.126;37.876;2022-10-16T05:15:04;100859.09;;;13.42;56.45
67842;BME280;54642;59.126;37.876;2022-10-16T05:17:30;100877.97;;;13.90;55.28
67842;BME280;54642;59.126;37.876;2022-10-16T05:19:55;100845.75;;;14.00;54.94
67842;BME280;54642;59.126;37.876;2022-10-16T05:22:21;100861.75;;;14.72;53.98
67842;BME280;54642;59.126;37.876;2022-10-16T05:24:47;100868.28;;;15.17;52.83
67842;BME280;54642;59.126;37.876;2022-10-16T05:27:13;100825.91;;;14.92;52.18
67842;BME280;54642;59.126;37.876;2022-10-16T05:29:45;100849.47;;;14.84;52.48
67842;BME280;54642;59.126;37.876;2022-10-16T05:32:16;100866.50;;;15.18;52.31
67842;BME280;54642;59.126;37.876;2022-10-16T05:34:42;100861.16;;;15.30;51.91
67842;BME280;54642;59.126;37.876;2022-10-16T05:37:08;100862.66;;;15.51;51.49
67842;BME280;54642;59.126;37.876;2022-10-16T05:39:34;100850.72;;;15.29;51.21
67842;BME280;54642;59.126;37.876;2022-10-16T05:42:00;100878.22;;;15.60;50.81
67842;BME280;54642;59.126;37.876;2022-10-16T05:44:26;100858.56;;;15.97;50.46
67842;BME280;54642;59.126;37.876;2022-10-16T05:46:52;100857.78;;;16.51;49.51
67842;BME280;54642;59.126;37.876;2022-10-16T05:49:17;100861.91;;;16.63;48.73
67842;BME280;54642;59.126;37.876;2022-10-16T05:51:43;100870.41;;;16.75;48.96
67842;BME280;54642;59.126;37.876;2022-10-16T05:54:09;100867.16;;;17.12;47.91
67842;BME280;54642;59.126;37.876;2022-10-16T05:56:35;100872.94;;;16.82;47.92
67842;BME280;54642;59.126;37.876;2022-10-16T05:59:03;100852.88;;;16.81;48.15
67842;BME280;54642;59.126;37.876;2022-10-16T06:01:29;100851.84;;;16.92;47.50
67842;BME280;54642;59.126;37.876;2022-10-16T06:03:57;100867.22;;;17.09;47.22
67842;BME280;54642;59.126;37.876;2022-10-16T06:06:25;100861.31;;;16.98;47.34
67842;BME280;54642;59.126;37.876;2022-10-16T06:08:52;100851.94;;;16.86;46.95
67842;BME280;54642;59.126;37.876;2022-10-16T06:11:24;100867.69;;;16.85;47.06
67842;BME280;54642;59.126;37.876;2022-10-16T06:13:58;100865.72;;;16.96;46.85
67842;BME280;54642;59.126;37.876;2022-10-16T06:16:25;100857.25;;;16.27;47.26
67842;BME280;54642;59.126;37.876;2022-10-16T06:18:52;100858.53;;;16.01;47.78
67842;BME280;54642;59.126;37.876;2022-10-16T06:21:21;100857.78;;;16.51;47.06
67842;BME280;54642;59.126;37.876;2022-10-16T06:23:48;100879.34;;;16.64;46.60
67842;BME280;54642;59.126;37.876;2022-10-16T06:26:16;100883.22;;;16.94;46.05
67842;BME280;54642;59.126;37.876;2022-10-16T06:28:43;100854.13;;;17.08;45.58
67842;BME280;54642;59.126;37.876;2022-10-16T06:31:09;100879.28;;;17.17;45.89
67842;BME280;54642;59.126;37.876;2022-10-16T06:33:36;100879.00;;;16.85;46.22
67842;BME280;54642;59.126;37.876;2022-10-16T06:36:14;100895.88;;;16.67;46.19
67842;BME280;54642;59.126;37.876;2022-10-16T06:38:40;100891.25;;;16.82;46.74
67842;BME280;54642;59.126;37.876;2022-10-16T06:41:09;100836.56;;;16.13;47.00
67842;BME280;54642;59.126;37.876;2022-10-16T06:43:35;100854.78;;;15.54;48.60
67842;BME280;54642;59.126;37.876;2022-10-16T06:46:02;100896.19;;;15.07;50.28
67842;BME280;54642;59.126;37.876;2022-10-16T06:48:29;100880.28;;;14.36;51.67
67842;BME280;54642;59.126;37.876;2022-10-16T06:51:08;100885.84;;;13.79;52.89
67842;BME280;54642;59.126;37.876;2022-10-16T06:53:36;100882.56;;;13.32;54.19
67842;BME280;54642;59.126;37.876;2022-10-16T06:58:38;100906.03;;;12.62;56.33
67842;BME280;54642;59.126;37.876;2022-10-16T07:01:05;100894.75;;;12.26;57.21
67842;BME280;54642;59.126;37.876;2022-10-16T07:03:32;100894.69;;;12.01;57.80
67842;BME280;54642;59.126;37.876;2022-10-16T07:06:03;100890.25;;;11.74;58.69
67842;BME280;54642;59.126;37.876;2022-10-16T07:08:34;100906.63;;;11.57;58.81
67842;BME280;54642;59.126;37.876;2022-10-16T07:11:02;100909.13;;;11.39;59.33
67842;BME280;54642;59.126;37.876;2022-10-16T07:13:28;100903.78;;;11.16;59.64
67842;BME280;54642;59.126;37.876;2022-10-16T07:15:54;100893.31;;;10.97;60.00
67842;BME280;54642;59.126;37.876;2022-10-16T07:18:20;100911.53;;;11.08;59.98
67842;BME280;54642;59.126;37.876;2022-10-16T07:20:46;100919.41;;;11.22;60.17
67842;BME280;54642;59.126;37.876;2022-10-16T07:23:12;100912.59;;;11.41;59.96
67842;BME280;54642;59.126;37.876;2022-10-16T07:25:38;100903.22;;;11.66;59.71
67842;BME280;54642;59.126;37.876;2022-10-16T07:28:04;100875.50;;;11.63;59.04
67842;BME280;54642;59.126;37.876;2022-10-16T07:30:29;100897.19;;;11.78;59.24
67842;BME280;54642;59.126;37.876;2022-10-16T07:32:55;100886.78;;;11.72;59.59
67842;BME280;54642;59.126;37.876;2022-10-16T07:35:21;100900.63;;;11.66;59.93
67842;BME280;54642;59.126;37.876;2022-10-16T07:37:47;100894.53;;;11.66;59.78
67842;BME280;54642;59.126;37.876;2022-10-16T07:40:13;100885.81;;;11.51;60.08
67842;BME280;54642;59.126;37.876;2022-10-16T07:42:38;100890.97;;;11.43;60.31
67842;BME280;54642;59.126;37.876;2022-10-16T07:45:05;100891.84;;;11.39;60.09
67842;BME280;54642;59.126;37.876;2022-10-16T07:47:31;100907.41;;;11.42;60.58
67842;BME280;54642;59.126;37.876;2022-10-16T07:49:57;100902.22;;;11.42;60.38
67842;BME280;54642;59.126;37.876;2022-10-16T07:52:22;100904.81;;;11.39;60.54
67842;BME280;54642;59.126;37.876;2022-10-16T07:54:48;100869.19;;;11.12;60.49
67842;BME280;54642;59.126;37.876;2022-10-16T07:57:14;100897.78;;;11.24;60.70
67842;BME280;54642;59.126;37.876;2022-10-16T07:59:45;100903.78;;;11.16;60.52
67842;BME280;54642;59.126;37.876;2022-10-16T08:02:12;100903.75;;;11.10;61.05
67842;BME280;54642;59.126;37.876;2022-10-16T08:04:38;100908.94;;;11.10;61.38
67842;BME280;54642;59.126;37.876;2022-10-16T08:07:04;100898.63;;;11.17;61.47
67842;BME280;54642;59.126;37.876;2022-10-16T08:09:30;100868.28;;;11.02;61.14
67842;BME280;54642;59.126;37.876;2022-10-16T08:11:56;100882.22;;;11.21;61.28
67842;BME280;54642;59.126;37.876;2022-10-16T08:14:21;100888.31;;;11.31;61.55
67842;BME280;54642;59.126;37.876;2022-10-16T08:16:47;100877.03;;;11.26;61.14
67842;BME280;54642;59.126;37.876;2022-10-16T08:19:13;100890.13;;;11.41;61.26
67842;BME280;54642;59.126;37.876;2022-10-16T08:21:41;100860.63;;;11.27;61.16
67842;BME280;54642;59.126;37.876;2022-10-16T08:24:06;100877.97;;;11.37;61.22
67842;BME280;54642;59.126;37.876;2022-10-16T08:26:32;100880.59;;;11.42;61.10
67842;BME280;54642;59.126;37.876;2022-10-16T08:28:58;100873.69;;;11.39;61.01
67842;BME280;54642;59.126;37.876;2022-10-16T08:31:24;100867.66;;;11.53;61.04
67842;BME280;54642;59.126;37.876;2022-10-16T08:33:52;100872.03;;;11.61;61.02
67842;BME280;54642;59.126;37.876;2022-10-16T08:36:18;100893.66;;;11.63;61.10
67842;BME280;54642;59.126;37.876;2022-10-16T08:38:47;100872.84;;;11.53;61.39
67842;BME280;54642;59.126;37.876;2022-10-16T08:49:35;100861.63;;;11.60;61.03
67842;BME280;54642;59.126;37.876;2022-10-16T08:52:02;100855.56;;;11.64;61.18
67842;BME280;54642;59.126;37.876;2022-10-16T08:54:36;100860.00;;;11.87;61.00
67842;BME280;54642;59.126;37.876;2022-10-16T08:57:18;100843.59;;;11.97;60.63
67842;BME280;54642;59.126;37.876;2022-10-16T08:59:45;100854.03;;;12.22;60.01
67842;BME280;54642;59.126;37.876;2022-10-16T09:02:24;100810.63;;;11.87;59.45
67842;BME280;54642;59.126;37.876;2022-10-16T09:07:54;100860.97;;;12.27;59.56
67842;BME280;54642;59.126;37.876;2022-10-16T09:16:18;100849.69;;;12.53;58.71
67842;BME280;54642;59.126;37.876;2022-10-16T09:19:03;100830.63;;;12.57;58.71
67842;BME280;54642;59.126;37.876;2022-10-16T09:21:36;100823.66;;;12.71;58.52
67842;BME280;54642;59.126;37.876;2022-10-16T09:24:19;100825.41;;;12.68;58.24
67842;BME280;54642;59.126;37.876;2022-10-16T09:26:46;100817.63;;;12.60;58.06
67842;BME280;54642;59.126;37.876;2022-10-16T09:29:14;100805.50;;;12.54;58.04
67842;BME280;54642;59.126;37.876;2022-10-16T09:31:40;100809.81;;;12.55;57.73
67842;BME280;54642;59.126;37.876;2022-10-16T09:34:27;100802.88;;;12.71;57.86
67842;BME280;54642;59.126;37.876;2022-10-16T09:36:57;100778.63;;;12.58;57.31
67842;BME280;54642;59.126;37.876;2022-10-16T09:39:24;100803.75;;;12.69;57.33
67842;BME280;54642;59.126;37.876;2022-10-16T09:41:51;100808.06;;;12.79;57.29
67842;BME280;54642;59.126;37.876;2022-10-16T09:44:27;100787.25;;;12.82;57.37
67842;BME280;54642;59.126;37.876;2022-10-16T09:47:05;100808.00;;;13.07;56.83
67842;BME280;54642;59.126;37.876;2022-10-16T09:49:31;100798.44;;;13.12;56.65
67842;BME280;54642;59.126;37.876;2022-10-16T09:52:24;100796.63;;;13.34;56.35
67842;BME280;54642;59.126;37.876;2022-10-16T09:54:55;100781.88;;;13.28;56.22
67842;BME280;54642;59.126;37.876;2022-10-16T09:57:22;100761.09;;;13.16;56.16
67842;BME280;54642;59.126;37.876;2022-10-16T09:59:53;100781.03;;;13.29;55.96
67842;BME280;54642;59.126;37.876;2022-10-16T10:02:27;100779.31;;;13.33;55.88
67842;BME280;54642;59.126;37.876;2022-10-16T10:04:54;100789.72;;;13.33;55.56
67842;BME280;54642;59.126;37.876;2022-10-16T10:07:30;100776.66;;;13.30;55.43
67842;BME280;54642;59.126;37.876;2022-10-16T10:10:02;100745.53;;;13.13;55.22
67842;BME280;54642;59.126;37.876;2022-10-16T10:12:30;100786.22;;;13.39;55.02
67842;BME280;54642;59.126;37.876;2022-10-16T10:15:10;100774.03;;;13.44;55.09
67842;BME280;54642;59.126;37.876;2022-10-16T10:17:57;100783.56;;;13.49;54.94
67842;BME280;54642;59.126;37.876;2022-10-16T10:20:29;100770.53;;;13.45;54.91
67842;BME280;54642;59.126;37.876;2022-10-16T10:22:56;100760.19;;;13.40;54.68
67842;BME280;54642;59.126;37.876;2022-10-16T10:33:37;100769.47;;;13.84;54.86
67842;BME280;54642;59.126;37.876;2022-10-16T10:42:08;100767.56;;;14.02;54.57
67842;BME280;54642;59.126;37.876;2022-10-16T10:45:22;100767.56;;;14.02;54.55
67842;BME280;54642;59.126;37.876;2022-10-16T10:48:12;100771.94;;;14.00;54.68
67842;BME280;54642;59.126;37.876;2022-10-16T10:50:53;100766.78;;;13.94;54.80
67842;BME280;54642;59.126;37.876;2022-10-16T10:56:29;100758.06;;;13.96;54.73
67842;BME280;54642;59.126;37.876;2022-10-16T11:01:53;100764.09;;;14.03;54.66
67842;BME280;54642;59.126;37.876;2022-10-16T11:07:18;100760.69;;;13.95;54.96
67842;BME280;54642;59.126;37.876;2022-10-16T11:09:52;100754.69;;;13.85;54.71
67842;BME280;54642;59.126;37.876;2022-10-16T11:12:44;100765.06;;;13.89;55.25
67842;BME280;54642;59.126;37.876;2022-10-16T11:15:23;100767.66;;;13.89;55.04
67842;BME280;54642;59.126;37.876;2022-10-16T11:17:52;100768.53;;;13.91;55.20
67842;BME280;54642;59.126;37.876;2022-10-16T11:20:31;100760.69;;;13.95;54.97
67842;BME280;54642;59.126;37.876;2022-10-16T11:25:30;100756.31;;;13.98;54.66
67842;BME280;54642;59.126;37.876;2022-10-16T11:28:27;100730.25;;;14.00;54.64
67842;BME280;54642;59.126;37.876;2022-10-16T11:31:37;100726.72;;;14.05;55.07
67842;BME280;54642;59.126;37.876;2022-10-16T11:44:51;100744.50;;;15.31;51.84
67842;BME280;54642;59.126;37.876;2022-10-16T11:47:51;100737.09;;;15.62;50.62
67842;BME280;54642;59.126;37.876;2022-10-16T11:50:28;100729.97;;;15.75;50.25
67842;BME280;54642;59.126;37.876;2022-10-16T11:55:49;100730.78;;;16.31;49.05
67842;BME280;54642;59.126;37.876;2022-10-16T11:58:32;100720.59;;;16.63;48.73
67842;BME280;54642;59.126;37.876;2022-10-16T12:09:29;100726.44;;;16.30;48.38
67842;BME280;54642;59.126;37.876;2022-10-16T12:11:56;100728.72;;;16.49;47.88
67842;BME280;54642;59.126;37.876;2022-10-16T12:19:32;100708.34;;;16.65;47.65
67842;BME280;54642;59.126;37.876;2022-10-16T12:22:02;100708.78;;;16.42;48.03
67842;BME280;54642;59.126;37.876;2022-10-16T12:24:39;100709.16;;;16.22;48.63
67842;BME280;54642;59.126;37.876;2022-10-16T12:27:30;100703.59;;;15.92;48.86
67842;BME280;54642;59.126;37.876;2022-10-16T12:30:02;100709.97;;;15.71;49.32
67842;BME280;54642;59.126;37.876;2022-10-16T12:32:34;100703.16;;;15.62;49.41
67842;BME280;54642;59.126;37.876;2022-10-16T12:35:02;100712.03;;;15.50;49.53
67842;BME280;54642;59.126;37.876;2022-10-16T12:37:36;100712.09;;;15.47;49.81
67842;BME280;54642;59.126;37.876;2022-10-16T12:40:15;100695.47;;;15.51;49.73
67842;BME280;54642;59.126;37.876;2022-10-16T12:42:48;100694.66;;;15.48;50.03
67842;BME280;54642;59.126;37.876;2022-10-16T12:45:33;100691.06;;;15.55;50.13
67842;BME280;54642;59.126;37.876;2022-10-16T12:48:17;100691.06;;;15.55;49.74
67842;BME280;54642;59.126;37.876;2022-10-16T12:50:44;100674.88;;;15.33;49.92
67842;BME280;54642;59.126;37.876;2022-10-16T12:53:36;100689.44;;;15.46;50.21
67842;BME280;54642;59.126;37.876;2022-10-16T12:59:24;100687.34;;;15.68;50.03
67842;BME280;54642;59.126;37.876;2022-10-16T13:02:34;100691.38;;;15.92;49.71
67842;BME280;54642;59.126;37.876;2022-10-16T13:18:28;100684.59;;;15.20;50.25
67842;BME280;54642;59.126;37.876;2022-10-16T13:21:18;100685.69;;;15.03;50.55
67842;BME280;54642;59.126;37.876;2022-10-16T13:24:23;100683.16;;;14.99;50.26
67842;BME280;54642;59.126;37.876;2022-10-16T13:29:22;100667.06;;;14.63;50.72
67842;BME280;54642;59.126;37.876;2022-10-16T13:31:49;100663.69;;;14.50;50.80
67842;BME280;54642;59.126;37.876;2022-10-16T13:34:21;100685.41;;;14.54;51.21
67842;BME280;54642;59.126;37.876;2022-10-16T13:36:50;100662.13;;;14.38;51.11
67842;BME280;54642;59.126;37.876;2022-10-16T13:39:27;100681.22;;;14.40;50.95
67842;BME280;54642;59.126;37.876;2022-10-16T13:42:03;100681.25;;;14.34;51.14
67842;BME280;54642;59.126;37.876;2022-10-16T13:44:51;100680.50;;;14.26;51.22
67842;BME280;54642;59.126;37.876;2022-10-16T13:47:22;100682.25;;;14.22;51.15
67842;BME280;54642;59.126;37.876;2022-10-16T13:50:16;100680.53;;;14.21;51.08
67842;BME280;54642;59.126;37.876;2022-10-16T13:52:43;100681.44;;;14.17;51.27
67842;BME280;54642;59.126;37.876;2022-10-16T13:55:18;100680.59;;;14.14;51.13
67842;BME280;54642;59.126;37.876;2022-10-16T13:57:44;100663.50;;;13.86;51.10
67842;BME280;54642;59.126;37.876;2022-10-16T14:00:21;100677.28;;;13.98;51.44
67842;BME280;54642;59.126;37.876;2022-10-16T14:02:53;100660.91;;;13.82;51.19
67842;BME280;54642;59.126;37.876;2022-10-16T14:05:21;100674.75;;;13.90;51.63
67842;BME280;54642;59.126;37.876;2022-10-16T14:07:49;100667.91;;;13.78;51.41
67842;BME280;54642;59.126;37.876;2022-10-16T14:10:25;100648.91;;;13.64;51.79
67842;BME280;54642;59.126;37.876;2022-10-16T14:13:02;100671.31;;;13.85;51.56
67842;BME280;54642;59.126;37.876;2022-10-16T14:15:30;100666.13;;;13.83;51.69
67842;BME280;54642;59.126;37.876;2022-10-16T14:17:57;100661.84;;;13.76;51.86
67842;BME280;54642;59.126;37.876;2022-10-16T14:20:27;100670.50;;;13.78;51.53
67842;BME280;54642;59.126;37.876;2022-10-16T14:23:18;100660.16;;;13.69;51.53
67842;BME280;54642;59.126;37.876;2022-10-16T14:25:45;100640.34;;;13.51;51.75
67842;BME280;54642;59.126;37.876;2022-10-16T14:28:21;100665.38;;;13.69;51.74
67842;BME280;54642;59.126;37.876;2022-10-16T14:30:58;100661.06;;;13.63;51.82
67842;BME280;54642;59.126;37.876;2022-10-16T14:33:34;100661.94;;;13.62;51.87
67842;BME280;54642;59.126;37.876;2022-10-16T14:36:10;100675.88;;;13.58;52.07
67842;BME280;54642;59.126;37.876;2022-10-16T14:38:38;100668.97;;;13.54;52.12
67842;BME280;54642;59.126;37.876;2022-10-16T14:41:05;100671.56;;;13.54;52.32
67842;BME280;54642;59.126;37.876;2022-10-16T14:43:34;100670.75;;;13.47;52.31